Time;durP1;ratioP1;P1;durP2;ratioP2;P2;SDS_P1;SDS_P2;PMS_P1;PMS_P2;Temp;Humidity;BMP_temperature;BMP_pressure;BME280_temperature;BME280_humidity;BME280_pressure;Samples;Min_cycle;Max_cycle;Signal;HPM_P1;HPM_P2
2022/06/04 00:00:37;;;;;;;;;;;25.10;51.40;;;;;;1497983;78;696;-57
2022/06/04 00:02:40;;;;;;;;;;;25.10;51.40;;;;;;1496080;78;1943;-57
2022/06/04 00:04:42;;;;;;;;;;;25.10;51.30;;;;;;1492177;78;771;-57
2022/06/04 00:06:43;;;;;;;;;;;25.10;51.30;;;;;;1496673;78;1125;-57
2022/06/04 00:08:45;;;;;;;;;;;25.10;51.30;;;;;;1498272;78;1558;-57
2022/06/04 00:15:32;;;;;;;;;;;25.10;51.30;;;;;;1494752;78;1674;-57
2022/06/04 00:17:34;;;;;;;;;;;25.10;51.30;;;;;;1492628;78;695;-57
2022/06/04 00:19:36;;;;;;;;;;;25.10;51.20;;;;;;1494065;78;673;-57
2022/06/04 00:21:38;;;;;;;;;;;25.10;51.20;;;;;;1498987;78;728;-57
2022/06/04 00:23:40;;;;;;;;;;;25.10;51.20;;;;;;1505012;78;1945;-57
2022/06/04 00:25:43;;;;;;;;;;;25.20;51.20;;;;;;1498064;78;1163;-57
2022/06/04 00:27:45;;;;;;;;;;;25.10;51.20;;;;;;1497090;78;686;-57
2022/06/04 00:29:47;;;;;;;;;;;25.10;51.20;;;;;;1501554;78;760;-56
2022/06/04 00:31:49;;;;;;;;;;;25.10;51.10;;;;;;1495646;78;746;-57
2022/06/04 00:33:50;;;;;;;;;;;25.10;51.00;;;;;;1484500;79;1293;-56
2022/06/04 00:35:53;;;;;;;;;;;25.10;51.10;;;;;;1493573;78;1111;-57
2022/06/04 00:37:55;;;;;;;;;;;25.10;51.00;;;;;;1510632;78;1559;-56
2022/06/04 00:39:59;;;;;;;;;;;25.10;51.20;;;;;;1512153;73;224286;-65
2022/06/04 00:42:05;;;;;;;;;;;25.10;51.10;;;;;;1528871;75;1100;-67
2022/06/04 00:44:13;;;;;;;;;;;25.10;51.10;;;;;;1524382;75;1905;-68
2022/06/04 00:46:33;;;;;;;;;;;25.10;51.00;;;;;;1535717;76;678;-67
2022/06/04 00:48:35;;;;;;;;;;;25.10;51.00;;;;;;1545686;75;569;-68
2022/06/04 00:50:38;;;;;;;;;;;25.10;51.00;;;;;;1542950;76;1530;-68
2022/06/04 00:52:40;;;;;;;;;;;25.10;51.00;;;;;;1541584;76;684;-69
2022/06/04 00:54:42;;;;;;;;;;;25.10;51.00;;;;;;1533094;76;728;-67
2022/06/04 00:57:02;;;;;;;;;;;25.10;50.90;;;;;;1522362;76;683;-67
2022/06/04 00:59:08;;;;;;;;;;;25.10;50.90;;;;;;1534033;76;680;-66
2022/06/04 01:01:12;;;;;;;;;;;25.00;50.90;;;;;;1521392;76;1751;-68
2022/06/04 01:03:15;;;;;;;;;;;25.10;50.90;;;;;;1527749;76;1929;-69
2022/06/04 01:05:30;;;;;;;;;;;25.10;50.90;;;;;;1535470;76;1857;-70
2022/06/04 01:07:52;;;;;;;;;;;25.10;50.90;;;;;;1544840;76;761;-68
2022/06/04 01:10:12;;;;;;;;;;;25.10;50.90;;;;;;1522198;76;1115;-70
2022/06/04 01:12:32;;;;;;;;;;;25.10;50.90;;;;;;1539698;76;678;-70
2022/06/04 01:14:44;;;;;;;;;;;25.10;50.80;;;;;;1530264;76;703;-71
2022/06/04 01:16:55;;;;;;;;;;;25.10;50.90;;;;;;1527457;76;695;-66
2022/06/04 01:19:04;;;;;;;;;;;25.10;50.80;;;;;;1526301;76;1862;-68
2022/06/04 01:21:11;;;;;;;;;;;25.10;50.80;;;;;;1504867;76;1158;-69
2022/06/04 01:23:14;;;;;;;;;;;25.10;50.90;;;;;;1520061;76;1932;-69
2022/06/04 01:25:20;;;;;;;;;;;25.10;50.90;;;;;;1526088;76;662;-68
2022/06/04 01:27:24;;;;;;;;;;;25.00;51.00;;;;;;1520605;76;656;-70
2022/06/04 01:29:33;;;;;;;;;;;25.10;51.00;;;;;;1528012;76;1142;-68
2022/06/04 01:31:37;;;;;;;;;;;25.10;51.00;;;;;;1536175;76;723;-69
2022/06/04 01:33:40;;;;;;;;;;;25.10;50.90;;;;;;1530152;76;1469;-69
2022/06/04 01:35:46;;;;;;;;;;;25.00;50.90;;;;;;1521976;76;670;-68
2022/06/04 01:37:59;;;;;;;;;;;25.10;51.00;;;;;;1536596;76;684;-69
2022/06/04 01:42:21;;;;;;;;;;;25.10;50.90;;;;;;1518534;76;1610;-67
2022/06/04 01:44:27;;;;;;;;;;;25.10;50.90;;;;;;1528654;76;1949;-66
2022/06/04 01:46:31;;;;;;;;;;;25.00;50.90;;;;;;1535299;76;827;-67
2022/06/04 01:48:32;;;;;;;;;;;25.00;50.90;;;;;;1539864;76;1471;-67
2022/06/04 01:50:42;;;;;;;;;;;25.00;50.90;;;;;;1530228;75;1415;-69
2022/06/04 01:52:44;;;;;;;;;;;25.00;50.90;;;;;;1528534;76;751;-66
2022/06/04 01:54:49;;;;;;;;;;;25.00;50.90;;;;;;1527002;76;727;-68
2022/06/04 01:56:55;;;;;;;;;;;25.00;50.80;;;;;;1533990;76;1700;-67
2022/06/04 01:59:11;;;;;;;;;;;25.00;50.80;;;;;;1531924;76;667;-68
2022/06/04 02:01:14;;;;;;;;;;;25.00;50.80;;;;;;1517132;76;1541;-68
2022/06/04 02:03:20;;;;;;;;;;;25.00;50.80;;;;;;1541033;76;1917;-69
2022/06/04 02:05:24;;;;;;;;;;;25.00;50.80;;;;;;1540925;76;713;-68
2022/06/04 02:07:30;;;;;;;;;;;25.00;50.70;;;;;;1537876;76;619;-68
2022/06/04 02:09:32;;;;;;;;;;;25.00;50.70;;;;;;1522751;76;1158;-67
2022/06/04 02:11:34;;;;;;;;;;;25.00;50.70;;;;;;1543436;76;654;-67
2022/06/04 02:13:36;;;;;;;;;;;25.00;50.70;;;;;;1521234;76;662;-70
2022/06/04 02:15:40;;;;;;;;;;;25.00;50.80;;;;;;1536874;76;1493;-67
2022/06/04 02:17:43;;;;;;;;;;;25.00;50.70;;;;;;1529626;76;1955;-66
2022/06/04 02:19:45;;;;;;;;;;;25.00;50.70;;;;;;1527284;76;1175;-66
2022/06/04 02:21:47;;;;;;;;;;;25.10;50.80;;;;;;1529125;76;670;-67
2022/06/04 02:23:49;;;;;;;;;;;25.00;50.70;;;;;;1525666;76;1936;-66
2022/06/04 02:25:51;;;;;;;;;;;25.00;50.70;;;;;;1533185;76;688;-67
2022/06/04 02:27:53;;;;;;;;;;;25.00;50.70;;;;;;1522648;76;677;-67
2022/06/04 02:29:55;;;;;;;;;;;25.00;50.70;;;;;;1535172;76;1458;-67
2022/06/04 02:32:01;;;;;;;;;;;25.10;50.70;;;;;;1552338;76;657;-72
2022/06/04 02:34:17;;;;;;;;;;;25.00;50.70;;;;;;1534333;76;2517;-68
2022/06/04 02:36:21;;;;;;;;;;;25.00;50.70;;;;;;1543192;76;737;-67
2022/06/04 02:38:36;;;;;;;;;;;25.00;50.70;;;;;;1532945;76;1135;-66
2022/06/04 02:40:40;;;;;;;;;;;25.10;50.70;;;;;;1537869;76;1872;-66
2022/06/04 02:43:00;;;;;;;;;;;25.10;50.60;;;;;;1526898;76;1705;-69
2022/06/04 02:45:10;;;;;;;;;;;25.10;50.70;;;;;;1534294;76;1927;-68
2022/06/04 02:47:15;;;;;;;;;;;25.10;50.60;;;;;;1538635;76;768;-68
2022/06/04 02:49:19;;;;;;;;;;;25.20;50.60;;;;;;1538636;76;697;-69
2022/06/04 02:51:21;;;;;;;;;;;25.20;50.60;;;;;;1550032;76;1747;-68
2022/06/04 02:53:24;;;;;;;;;;;25.20;50.60;;;;;;1543703;76;717;-69
2022/06/04 02:55:27;;;;;;;;;;;25.10;50.60;;;;;;1529497;76;715;-68
2022/06/04 02:57:30;;;;;;;;;;;25.10;50.60;;;;;;1523870;76;1533;-66
2022/06/04 02:59:33;;;;;;;;;;;25.20;50.60;;;;;;1532709;76;1145;-69
2022/06/04 03:01:37;;;;;;;;;;;25.20;50.70;;;;;;1535528;76;711;-67
2022/06/04 03:03:40;;;;;;;;;;;25.20;50.60;;;;;;1520810;76;1943;-67
2022/06/04 03:05:52;;;;;;;;;;;25.20;50.60;;;;;;1536991;76;722;-69
2022/06/04 03:07:57;;;;;;;;;;;25.20;50.60;;;;;;1521817;76;1375;-67
2022/06/04 03:10:01;;;;;;;;;;;25.30;50.50;;;;;;1527560;76;1091;-67
2022/06/04 03:12:03;;;;;;;;;;;25.30;50.50;;;;;;1525960;76;1352;-67
2022/06/04 03:14:04;;;;;;;;;;;25.20;50.50;;;;;;1530365;76;728;-66
2022/06/04 03:16:06;;;;;;;;;;;25.30;50.50;;;;;;1534331;76;731;-66
2022/06/04 03:18:08;;;;;;;;;;;25.20;50.40;;;;;;1523819;76;582;-69
2022/06/04 03:20:11;;;;;;;;;;;25.30;50.50;;;;;;1531390;76;1175;-68
2022/06/04 03:22:13;;;;;;;;;;;25.30;50.40;;;;;;1518385;76;709;-71
2022/06/04 03:24:15;;;;;;;;;;;25.30;50.40;;;;;;1538973;76;1952;-71
2022/06/04 03:26:17;;;;;;;;;;;25.30;50.40;;;;;;1540441;76;1290;-69
2022/06/04 03:28:19;;;;;;;;;;;25.30;50.30;;;;;;1538304;76;628;-70
2022/06/04 03:30:20;;;;;;;;;;;25.30;50.30;;;;;;1517734;76;1167;-70
2022/06/04 03:32:22;;;;;;;;;;;25.30;50.20;;;;;;1538854;76;751;-71
2022/06/04 03:34:24;;;;;;;;;;;25.30;50.20;;;;;;1531485;76;583;-69
2022/06/04 03:36:26;;;;;;;;;;;25.30;50.20;;;;;;1527237;76;698;-68
2022/06/04 03:38:28;;;;;;;;;;;25.30;50.30;;;;;;1538577;76;618;-67
2022/06/04 03:40:30;;;;;;;;;;;25.30;50.20;;;;;;1529225;76;1542;-67
2022/06/04 03:42:32;;;;;;;;;;;25.40;50.20;;;;;;1542811;76;690;-67
2022/06/04 03:44:34;;;;;;;;;;;25.40;50.30;;;;;;1533156;76;1917;-69
2022/06/04 03:46:36;;;;;;;;;;;25.30;50.20;;;;;;1524065;76;682;-70
2022/06/04 03:48:38;;;;;;;;;;;25.30;50.20;;;;;;1543418;76;670;-68
2022/06/04 03:50:39;;;;;;;;;;;25.30;50.20;;;;;;1534807;76;1122;-71
2022/06/04 03:52:42;;;;;;;;;;;25.30;50.20;;;;;;1522905;76;725;-68
2022/06/04 03:54:52;;;;;;;;;;;25.40;50.20;;;;;;1527731;76;1455;-68
2022/06/04 03:57:37;;;;;;;;;;;25.20;50.20;;;;;;1521272;76;690;-71
2022/06/04 03:58:58;;;;;;;;;;;25.30;50.20;;;;;;1528785;76;1363;-70
2022/06/04 04:01:00;;;;;;;;;;;25.20;50.20;;;;;;1526801;76;1175;-71
2022/06/04 04:03:06;;;;;;;;;;;25.30;50.20;;;;;;1550965;76;745;-71
2022/06/04 04:05:08;;;;;;;;;;;25.40;50.20;;;;;;1517406;76;1945;-71
2022/06/04 04:07:11;;;;;;;;;;;25.30;50.10;;;;;;1546594;76;720;-70
2022/06/04 04:09:13;;;;;;;;;;;25.40;50.10;;;;;;1525602;76;1576;-71
2022/06/04 04:11:15;;;;;;;;;;;25.30;50.00;;;;;;1530562;76;1083;-71
2022/06/04 04:13:17;;;;;;;;;;;25.30;49.90;;;;;;1535363;76;677;-72
2022/06/04 04:15:19;;;;;;;;;;;25.30;50.00;;;;;;1548840;76;667;-70
2022/06/04 04:17:22;;;;;;;;;;;25.40;50.00;;;;;;1532891;76;721;-71
2022/06/04 04:19:28;;;;;;;;;;;25.30;49.90;;;;;;1528435;76;690;-71
2022/06/04 04:21:28;;;;;;;;;;;25.30;49.90;;;;;;1531384;76;1729;-69
2022/06/04 04:23:30;;;;;;;;;;;25.30;50.00;;;;;;1522289;76;1481;-69
2022/06/04 04:25:31;;;;;;;;;;;25.40;50.00;;;;;;1537886;76;1940;-72
2022/06/04 04:27:33;;;;;;;;;;;25.40;50.00;;;;;;1528231;76;729;-73
2022/06/04 04:29:35;;;;;;;;;;;25.30;50.00;;;;;;1523095;76;1190;-72
2022/06/04 04:31:37;;;;;;;;;;;25.20;50.00;;;;;;1543985;76;669;-70
2022/06/04 04:33:39;;;;;;;;;;;25.30;50.10;;;;;;1523763;76;741;-71
2022/06/04 04:35:41;;;;;;;;;;;25.30;50.10;;;;;;1533072;76;1478;-71
2022/06/04 04:37:43;;;;;;;;;;;25.40;50.10;;;;;;1535433;76;821;-73
2022/06/04 04:39:45;;;;;;;;;;;25.40;50.10;;;;;;1526963;76;1110;-69
2022/06/04 04:41:47;;;;;;;;;;;25.30;50.10;;;;;;1549709;76;940;-68
2022/06/04 04:43:49;;;;;;;;;;;25.20;50.20;;;;;;1521835;76;671;-69
2022/06/04 04:45:51;;;;;;;;;;;25.20;50.10;;;;;;1536520;76;1925;-68
2022/06/04 04:47:53;;;;;;;;;;;25.30;50.00;;;;;;1546772;76;702;-68
2022/06/04 04:49:55;;;;;;;;;;;25.30;50.00;;;;;;1533156;76;1606;-69
2022/06/04 04:51:57;;;;;;;;;;;25.30;50.00;;;;;;1531184;76;689;-68
2022/06/04 04:53:58;;;;;;;;;;;25.30;50.00;;;;;;1531325;76;705;-69
2022/06/04 04:56:00;;;;;;;;;;;25.40;50.00;;;;;;1544526;76;710;-67
2022/06/04 04:58:02;;;;;;;;;;;25.30;49.90;;;;;;1527598;76;674;-68
2022/06/04 05:00:06;;;;;;;;;;;25.30;49.90;;;;;;1534376;76;1147;-68
2022/06/04 05:02:08;;;;;;;;;;;25.40;49.90;;;;;;1527882;76;689;-69
2022/06/04 05:04:10;;;;;;;;;;;25.30;49.90;;;;;;1544942;76;1943;-68
2022/06/04 05:06:12;;;;;;;;;;;25.30;49.90;;;;;;1544816;76;647;-68
2022/06/04 05:08:14;;;;;;;;;;;25.30;49.90;;;;;;1531574;76;665;-68
2022/06/04 05:10:16;;;;;;;;;;;25.30;49.90;;;;;;1532632;76;1142;-68
2022/06/04 05:12:18;;;;;;;;;;;25.30;50.00;;;;;;1527314;76;679;-68
2022/06/04 05:14:20;;;;;;;;;;;25.30;49.90;;;;;;1528655;76;692;-67
2022/06/04 05:16:23;;;;;;;;;;;25.40;50.00;;;;;;1524805;76;1045;-67
2022/06/04 05:18:25;;;;;;;;;;;25.40;49.90;;;;;;1530335;76;1578;-69
2022/06/04 05:20:28;;;;;;;;;;;25.40;49.70;;;;;;1534305;76;1179;-69
2022/06/04 05:22:30;;;;;;;;;;;25.40;49.80;;;;;;1546017;76;670;-68
2022/06/04 05:24:33;;;;;;;;;;;25.30;49.70;;;;;;1542404;76;1927;-64
2022/06/04 05:26:35;;;;;;;;;;;25.30;49.70;;;;;;1523706;76;650;-67
2022/06/04 05:28:37;;;;;;;;;;;25.30;49.60;;;;;;1531368;76;677;-66
2022/06/04 05:30:39;;;;;;;;;;;25.30;49.70;;;;;;1539118;76;1108;-66
2022/06/04 05:32:41;;;;;;;;;;;25.30;49.70;;;;;;1526981;76;1494;-64
2022/06/04 05:34:43;;;;;;;;;;;25.20;49.70;;;;;;1542108;76;610;-67
2022/06/04 05:36:45;;;;;;;;;;;25.20;49.70;;;;;;1549781;76;617;-65
2022/06/04 05:38:47;;;;;;;;;;;25.10;49.80;;;;;;1540839;76;699;-67
2022/06/04 05:40:49;;;;;;;;;;;25.10;49.80;;;;;;1537141;76;1153;-67
2022/06/04 05:42:50;;;;;;;;;;;25.10;49.90;;;;;;1539903;76;720;-68
2022/06/04 05:44:53;;;;;;;;;;;25.10;49.90;;;;;;1540115;76;1930;-68
2022/06/04 05:46:54;;;;;;;;;;;25.10;49.90;;;;;;1545259;76;1437;-67
2022/06/04 05:48:56;;;;;;;;;;;25.10;50.00;;;;;;1540571;76;681;-65
2022/06/04 05:50:58;;;;;;;;;;;25.10;50.00;;;;;;1546248;76;1139;-64
2022/06/04 05:53:00;;;;;;;;;;;25.00;50.00;;;;;;1537522;75;735;-65
2022/06/04 05:55:02;;;;;;;;;;;25.00;50.10;;;;;;1546453;76;713;-65
2022/06/04 05:57:04;;;;;;;;;;;25.10;50.10;;;;;;1542125;76;650;-66
2022/06/04 05:59:07;;;;;;;;;;;25.10;50.10;;;;;;1542406;76;664;-65
2022/06/04 06:01:09;;;;;;;;;;;25.10;50.00;;;;;;1547902;75;1543;-66
2022/06/04 06:03:11;;;;;;;;;;;25.00;50.00;;;;;;1538136;76;714;-67
2022/06/04 06:05:13;;;;;;;;;;;25.10;50.00;;;;;;1541792;76;1927;-66
2022/06/04 06:07:15;;;;;;;;;;;25.10;50.00;;;;;;1535559;76;704;-66
2022/06/04 06:09:18;;;;;;;;;;;25.10;50.00;;;;;;1543701;76;665;-66
2022/06/04 06:11:20;;;;;;;;;;;25.00;50.00;;;;;;1540899;76;1086;-66
2022/06/04 06:13:22;;;;;;;;;;;25.10;49.90;;;;;;1532158;76;633;-65
2022/06/04 06:15:23;;;;;;;;;;;25.10;49.90;;;;;;1533029;76;1500;-65
2022/06/04 06:17:25;;;;;;;;;;;25.00;50.00;;;;;;1534617;76;688;-67
2022/06/04 06:19:27;;;;;;;;;;;25.00;50.00;;;;;;1535422;76;1105;-66
2022/06/04 06:21:30;;;;;;;;;;;25.00;49.90;;;;;;1519533;76;1025;-65
2022/06/04 06:23:32;;;;;;;;;;;25.00;49.90;;;;;;1534420;76;674;-66
2022/06/04 06:25:34;;;;;;;;;;;25.00;49.90;;;;;;1543320;76;1931;-66
2022/06/04 06:27:35;;;;;;;;;;;25.00;49.90;;;;;;1542266;76;670;-63
2022/06/04 06:29:38;;;;;;;;;;;25.00;49.90;;;;;;1531606;76;1553;-65
2022/06/04 06:31:40;;;;;;;;;;;25.00;49.90;;;;;;1536582;76;752;-64
2022/06/04 06:33:41;;;;;;;;;;;25.00;49.80;;;;;;1538161;76;638;-66
2022/06/04 06:35:43;;;;;;;;;;;25.00;49.80;;;;;;1527392;75;705;-66
2022/06/04 06:37:46;;;;;;;;;;;25.00;49.90;;;;;;1538604;76;731;-65
2022/06/04 06:39:47;;;;;;;;;;;25.00;49.80;;;;;;1526058;74;229604;-58
2022/06/04 06:41:49;;;;;;;;;;;25.00;49.80;;;;;;1510124;72;227350;-70
2022/06/04 06:43:51;;;;;;;;;;;25.00;49.80;;;;;;1507415;77;1604;-70
2022/06/04 06:45:55;;;;;;;;;;;25.00;49.80;;;;;;1513189;77;2270;-71
2022/06/04 06:47:57;;;;;;;;;;;25.00;49.80;;;;;;1506060;77;995;-70
2022/06/04 06:50:00;;;;;;;;;;;25.00;49.90;;;;;;1519283;77;1206;-70
2022/06/04 06:52:02;;;;;;;;;;;24.90;49.90;;;;;;1540142;75;782;-69
2022/06/04 06:54:04;;;;;;;;;;;24.90;49.90;;;;;;1541397;75;751;-70
2022/06/04 06:56:09;;;;;;;;;;;24.90;49.90;;;;;;1543519;76;717;-70
2022/06/04 06:58:11;;;;;;;;;;;24.90;49.90;;;;;;1539124;75;1708;-70
2022/06/04 07:00:13;;;;;;;;;;;25.00;49.80;;;;;;1539301;75;1103;-71
2022/06/04 07:02:15;;;;;;;;;;;24.90;49.90;;;;;;1546589;76;668;-70
2022/06/04 07:04:17;;;;;;;;;;;24.90;49.90;;;;;;1545315;75;622;-70
2022/06/04 07:06:20;;;;;;;;;;;24.90;49.90;;;;;;1546608;76;1939;-70
2022/06/04 07:08:22;;;;;;;;;;;24.90;49.90;;;;;;1544974;75;1143;-70
2022/06/04 07:10:24;;;;;;;;;;;24.90;49.90;;;;;;1548335;75;1398;-70
2022/06/04 07:12:26;;;;;;;;;;;24.90;49.90;;;;;;1546810;75;698;-71
2022/06/04 07:14:28;;;;;;;;;;;24.90;49.90;;;;;;1534481;75;718;-70
2022/06/04 07:16:30;;;;;;;;;;;24.90;49.90;;;;;;1547774;75;637;-70
2022/06/04 07:18:32;;;;;;;;;;;24.90;50.00;;;;;;1543847;75;684;-69
2022/06/04 07:20:34;;;;;;;;;;;24.90;50.00;;;;;;1542751;75;1129;-70
2022/06/04 07:22:36;;;;;;;;;;;24.90;50.00;;;;;;1542208;75;661;-70
2022/06/04 07:24:38;;;;;;;;;;;24.90;50.00;;;;;;1546447;76;1534;-71
2022/06/04 07:26:40;;;;;;;;;;;24.90;50.00;;;;;;1546063;75;1953;-69
2022/06/04 07:28:42;;;;;;;;;;;24.90;50.00;;;;;;1544986;76;770;-66
2022/06/04 07:30:44;;;;;;;;;;;24.90;50.00;;;;;;1546616;75;1179;-67
2022/06/04 07:32:46;;;;;;;;;;;24.90;50.00;;;;;;1545962;75;909;-67
2022/06/04 07:34:48;;;;;;;;;;;24.80;50.00;;;;;;1538161;76;775;-67
2022/06/04 07:36:50;;;;;;;;;;;24.90;50.00;;;;;;1525375;77;907;-68
2022/06/04 07:38:52;;;;;;;;;;;24.90;50.10;;;;;;1519281;77;1531;-67
2022/06/04 07:40:53;;;;;;;;;;;24.90;50.10;;;;;;1518668;76;1143;-68
2022/06/04 07:42:55;;;;;;;;;;;24.90;50.10;;;;;;1510462;77;718;-67
2022/06/04 07:44:57;;;;;;;;;;;24.90;50.10;;;;;;1518590;77;785;-66
2022/06/04 07:46:59;;;;;;;;;;;24.90;50.10;;;;;;1537150;76;1940;-67
2022/06/04 07:49:01;;;;;;;;;;;24.90;50.10;;;;;;1510006;77;756;-67
2022/06/04 07:51:04;;;;;;;;;;;24.80;50.00;;;;;;1540456;75;1139;-67
2022/06/04 07:53:07;;;;;;;;;;;24.90;50.00;;;;;;1540952;76;1567;-66
2022/06/04 07:55:09;;;;;;;;;;;24.80;50.00;;;;;;1543692;76;690;-67
2022/06/04 07:57:11;;;;;;;;;;;24.90;50.10;;;;;;1517129;77;766;-67
2022/06/04 07:59:15;;;;;;;;;;;24.80;50.10;;;;;;1524310;77;674;-67
2022/06/04 08:01:17;;;;;;;;;;;24.80;50.00;;;;;;1524343;77;1686;-67
2022/06/04 08:03:19;;;;;;;;;;;24.80;50.00;;;;;;1523090;77;733;-66
2022/06/04 08:05:21;;;;;;;;;;;24.80;50.00;;;;;;1525212;77;1936;-66
2022/06/04 08:07:23;;;;;;;;;;;24.90;50.10;;;;;;1524746;77;1596;-67
2022/06/04 08:09:24;;;;;;;;;;;24.80;50.00;;;;;;1524130;78;721;-67
2022/06/04 08:11:32;;;;;;;;;;;24.80;50.00;;;;;;1525483;77;1139;-66
2022/06/04 08:13:34;;;;;;;;;;;24.80;50.00;;;;;;1523015;76;648;-66
2022/06/04 08:15:36;;;;;;;;;;;24.80;50.00;;;;;;1525660;77;665;-67
2022/06/04 08:17:38;;;;;;;;;;;24.80;50.00;;;;;;1516414;77;673;-67
2022/06/04 08:19:40;;;;;;;;;;;24.80;50.00;;;;;;1526625;77;652;-68
2022/06/04 08:21:41;;;;;;;;;;;24.80;50.00;;;;;;1523938;77;1549;-66
2022/06/04 08:23:44;;;;;;;;;;;24.80;50.00;;;;;;1548050;75;699;-68
2022/06/04 08:25:50;;;;;;;;;;;24.80;50.00;;;;;;1545434;75;1924;-67
2022/06/04 08:27:52;;;;;;;;;;;24.80;50.00;;;;;;1540769;75;744;-68
2022/06/04 08:29:54;;;;;;;;;;;24.80;49.90;;;;;;1539081;76;1205;-68
2022/06/04 08:31:56;;;;;;;;;;;24.80;49.90;;;;;;1539401;75;719;-67
2022/06/04 08:33:57;;;;;;;;;;;24.80;50.00;;;;;;1546275;75;798;-66
2022/06/04 08:35:59;;;;;;;;;;;24.80;50.00;;;;;;1545113;75;1536;-67
2022/06/04 08:38:01;;;;;;;;;;;24.80;50.00;;;;;;1535677;75;804;-69
2022/06/04 08:40:03;;;;;;;;;;;24.80;50.00;;;;;;1540700;75;1137;-67
2022/06/04 08:42:13;;;;;;;;;;;24.80;50.00;;;;;;1535646;75;833;-67
2022/06/04 08:44:22;;;;;;;;;;;24.80;50.00;;;;;;1542784;75;654;-65
2022/06/04 08:46:32;;;;;;;;;;;24.80;50.00;;;;;;1541984;75;1919;-63
2022/06/04 08:48:35;;;;;;;;;;;24.80;49.90;;;;;;1543153;76;699;-62
2022/06/04 08:50:37;;;;;;;;;;;24.80;50.00;;;;;;1541230;75;1528;-63
2022/06/04 08:52:47;;;;;;;;;;;24.90;50.00;;;;;;1534404;75;826;-63
2022/06/04 08:59:32;;;;;;;;;;;25.00;50.10;;;;;;1538547;75;1664;-66
2022/06/04 09:01:53;;;;;;;;;;;25.00;50.10;;;;;;1542907;75;1928;-65
2022/06/04 09:03:58;;;;;;;;;;;25.10;50.00;;;;;;1546580;75;1571;-65
2022/06/04 09:06:13;;;;;;;;;;;25.00;50.10;;;;;;1543579;75;1921;-65
2022/06/04 09:08:17;;;;;;;;;;;25.10;50.20;;;;;;1537729;75;749;-65
2022/06/04 09:10:23;;;;;;;;;;;25.10;50.20;;;;;;1534855;75;2534;-66
2022/06/04 09:12:26;;;;;;;;;;;25.20;50.40;;;;;;1540696;75;2363;-65
2022/06/04 09:14:33;;;;;;;;;;;25.30;50.70;;;;;;1547087;75;646;-65
2022/06/04 09:16:39;;;;;;;;;;;25.30;50.70;;;;;;1542238;75;1912;-65
2022/06/04 09:18:41;;;;;;;;;;;25.40;50.70;;;;;;1545488;75;1377;-64
2022/06/04 09:20:47;;;;;;;;;;;25.40;50.60;;;;;;1543840;75;1138;-65
2022/06/04 09:22:49;;;;;;;;;;;25.40;50.80;;;;;;1546742;76;703;-65
2022/06/04 09:24:51;;;;;;;;;;;25.40;50.90;;;;;;1544578;76;770;-66
2022/06/04 09:26:54;;;;;;;;;;;25.40;51.20;;;;;;1545669;76;1947;-67
2022/06/04 09:29:16;;;;;;;;;;;25.40;51.00;;;;;;1541508;75;1995;-65
2022/06/04 09:31:20;;;;;;;;;;;25.40;51.40;;;;;;1540141;75;1885;-65
2022/06/04 09:33:29;;;;;;;;;;;25.40;51.30;;;;;;1545490;75;710;-65
2022/06/04 09:35:32;;;;;;;;;;;25.40;51.40;;;;;;1547766;75;889;-65
2022/06/04 09:37:35;;;;;;;;;;;25.30;51.30;;;;;;1548189;75;660;-65
2022/06/04 09:39:38;;;;;;;;;;;25.30;51.50;;;;;;1545931;75;1897;-65
2022/06/04 09:41:40;;;;;;;;;;;25.30;51.30;;;;;;1543774;75;1104;-65
2022/06/04 09:43:42;;;;;;;;;;;25.20;51.20;;;;;;1501155;77;806;-64
2022/06/04 09:45:45;;;;;;;;;;;25.30;51.20;;;;;;1543260;75;1321;-64
2022/06/04 09:47:51;;;;;;;;;;;25.20;51.10;;;;;;1547519;75;1951;-64
2022/06/04 09:49:55;;;;;;;;;;;25.20;51.10;;;;;;1546446;75;1103;-65
2022/06/04 09:51:57;;;;;;;;;;;25.30;51.00;;;;;;1546563;75;1639;-66
2022/06/04 09:54:05;;;;;;;;;;;25.20;50.90;;;;;;1540131;75;747;-65
2022/06/04 09:56:08;;;;;;;;;;;25.20;50.80;;;;;;1497944;77;1857;-65
2022/06/04 09:58:20;;;;;;;;;;;25.10;50.90;;;;;;1517304;77;664;-64
2022/06/04 10:00:23;;;;;;;;;;;25.20;50.80;;;;;;1522006;77;1587;-64
2022/06/04 10:02:25;;;;;;;;;;;25.30;51.10;;;;;;1528323;77;664;-64
2022/06/04 10:04:38;;;;;;;;;;;25.30;51.10;;;;;;1524851;77;762;-65
2022/06/04 10:06:40;;;;;;;;;;;25.30;51.20;;;;;;1515734;77;1942;-65
2022/06/04 10:11:10;;;;;;;;;;;25.30;51.40;;;;;;1526315;76;1664;-64
2022/06/04 10:15:38;;;;;;;;;;;25.30;51.40;;;;;;1538491;76;1712;-64
2022/06/04 10:17:40;;;;;;;;;;;25.30;51.60;;;;;;1541368;76;1713;-64
2022/06/04 10:19:43;;;;;;;;;;;25.40;51.60;;;;;;1538938;76;589;-64
2022/06/04 10:21:47;;;;;;;;;;;25.40;51.80;;;;;;1538032;76;2236;-65
2022/06/04 10:23:49;;;;;;;;;;;25.30;51.70;;;;;;1534221;76;1905;-64
2022/06/04 10:25:59;;;;;;;;;;;25.40;51.70;;;;;;1538856;76;733;-63
2022/06/04 10:28:12;;;;;;;;;;;25.50;51.70;;;;;;1505927;77;1358;-65
2022/06/04 10:30:18;;;;;;;;;;;25.50;51.70;;;;;;1543233;76;1966;-63
2022/06/04 10:32:21;;;;;;;;;;;25.50;51.90;;;;;;1527755;76;737;-64
2022/06/04 10:34:42;;;;;;;;;;;25.50;51.80;;;;;;1530715;77;692;-64
2022/06/04 10:36:51;;;;;;;;;;;25.40;51.70;;;;;;1518198;77;760;-63
2022/06/04 10:39:11;;;;;;;;;;;25.40;51.70;;;;;;1519692;76;704;-64
2022/06/04 10:41:14;;;;;;;;;;;25.40;51.60;;;;;;1527186;75;1104;-64
2022/06/04 10:43:33;;;;;;;;;;;25.50;51.50;;;;;;1535113;76;781;-64
2022/06/04 10:45:39;;;;;;;;;;;25.50;51.50;;;;;;1510933;77;676;-64
2022/06/04 10:47:42;;;;;;;;;;;25.50;51.50;;;;;;1504312;77;1942;-63
2022/06/04 10:49:46;;;;;;;;;;;25.50;51.40;;;;;;1522792;77;1856;-66
2022/06/04 10:52:01;;;;;;;;;;;25.50;51.40;;;;;;1535552;76;1163;-68
2022/06/04 10:54:21;;;;;;;;;;;25.50;51.40;;;;;;1540279;76;791;-67
2022/06/04 10:56:28;;;;;;;;;;;25.50;51.30;;;;;;1537442;76;1589;-66
2022/06/04 10:58:40;;;;;;;;;;;25.50;51.30;;;;;;1524840;76;1757;-67
2022/06/04 11:00:44;;;;;;;;;;;25.60;51.10;;;;;;1513548;77;1127;-68
2022/06/04 11:02:50;;;;;;;;;;;25.50;50.90;;;;;;1530979;76;720;-68
2022/06/04 11:04:58;;;;;;;;;;;25.50;50.70;;;;;;1524494;77;692;-70
2022/06/04 11:07:02;;;;;;;;;;;25.60;50.90;;;;;;1529551;76;1947;-68
2022/06/04 11:09:05;;;;;;;;;;;25.60;50.70;;;;;;1521017;76;1912;-67
2022/06/04 11:11:08;;;;;;;;;;;25.70;50.40;;;;;;1533890;76;1684;-70
2022/06/04 11:13:24;;;;;;;;;;;25.70;50.20;;;;;;1537054;76;1705;-68
2022/06/04 11:15:28;;;;;;;;;;;25.70;50.20;;;;;;1535324;76;832;-68
2022/06/04 11:17:31;;;;;;;;;;;25.70;50.00;;;;;;1541679;76;660;-67
2022/06/04 11:19:35;;;;;;;;;;;25.70;50.00;;;;;;1535355;76;1166;-68
2022/06/04 11:21:37;;;;;;;;;;;25.60;49.40;;;;;;1534084;76;1141;-67
2022/06/04 11:23:41;;;;;;;;;;;25.60;49.20;;;;;;1524127;76;1646;-67
2022/06/04 11:25:44;;;;;;;;;;;25.50;49.30;;;;;;1515331;76;1682;-68
2022/06/04 11:27:50;;;;;;;;;;;25.60;49.40;;;;;;1532817;76;1936;-66
2022/06/04 11:29:52;;;;;;;;;;;25.50;49.70;;;;;;1539149;76;1188;-66
2022/06/04 11:31:56;;;;;;;;;;;25.50;49.60;;;;;;1533949;76;744;-67
2022/06/04 11:34:16;;;;;;;;;;;25.60;49.40;;;;;;1535001;76;2134;-67
2022/06/04 11:36:25;;;;;;;;;;;25.60;49.30;;;;;;1538088;76;733;-67
2022/06/04 11:38:44;;;;;;;;;;;25.60;49.20;;;;;;1538779;76;1560;-66
2022/06/04 11:40:47;;;;;;;;;;;25.60;49.10;;;;;;1529476;76;1170;-67
2022/06/04 11:43:02;;;;;;;;;;;25.70;49.00;;;;;;1534519;76;1950;-67
2022/06/04 11:45:22;;;;;;;;;;;25.60;49.00;;;;;;1530006;76;1031;-67
2022/06/04 11:47:41;;;;;;;;;;;25.60;49.00;;;;;;1526119;76;1913;-67
2022/06/04 11:49:51;;;;;;;;;;;25.60;49.20;;;;;;1531658;76;2439;-67
2022/06/04 11:51:54;;;;;;;;;;;25.60;49.00;;;;;;1546542;76;1954;-68
2022/06/04 11:54:10;;;;;;;;;;;25.70;48.90;;;;;;1537489;75;2041;-68
2022/06/04 11:56:13;;;;;;;;;;;25.70;49.10;;;;;;1536894;76;1902;-69
2022/06/04 11:58:29;;;;;;;;;;;25.70;49.10;;;;;;1530749;76;715;-64
2022/06/04 12:00:32;;;;;;;;;;;25.70;49.30;;;;;;1527866;76;1917;-66
2022/06/04 12:02:39;;;;;;;;;;;25.70;49.20;;;;;;1533390;76;961;-64
2022/06/04 12:04:42;;;;;;;;;;;25.70;49.20;;;;;;1530084;76;1942;-63
2022/06/04 12:06:51;;;;;;;;;;;25.60;49.30;;;;;;1532480;75;1921;-65
2022/06/04 12:09:01;;;;;;;;;;;25.50;49.30;;;;;;1530601;76;1793;-67
2022/06/04 12:11:08;;;;;;;;;;;25.50;49.30;;;;;;1507886;77;1088;-65
2022/06/04 12:13:23;;;;;;;;;;;25.60;49.20;;;;;;1512417;77;1872;-68
2022/06/04 12:15:33;;;;;;;;;;;25.40;49.10;;;;;;1520691;76;688;-66
2022/06/04 12:17:42;;;;;;;;;;;25.50;49.10;;;;;;1512047;77;1958;-66
2022/06/04 12:24:44;;;;;;;;;;;25.50;49.40;;;;;;1526720;77;1662;-65
2022/06/04 12:26:48;;;;;;;;;;;25.40;49.50;;;;;;1530582;77;1921;-65
2022/06/04 12:28:47;;;;;;;;;;;25.50;49.40;;;;;;1515305;77;1633;-65
2022/06/04 12:30:49;;;;;;;;;;;25.40;49.50;;;;;;1529400;77;1134;-65
2022/06/04 12:32:57;;;;;;;;;;;25.50;49.40;;;;;;1518425;77;787;-65
2022/06/04 12:35:12;;;;;;;;;;;25.40;49.50;;;;;;1526811;77;1583;-65
2022/06/04 12:37:22;;;;;;;;;;;25.40;49.40;;;;;;1530075;77;713;-65
2022/06/04 12:39:24;;;;;;;;;;;25.40;49.40;;;;;;1521454;78;1821;-65
2022/06/04 12:41:28;;;;;;;;;;;25.40;49.40;;;;;;1510980;72;227969;-71